createdAt,value
2019-04-05T00:01:30.737Z,9.10
2019-04-05T00:03:32.533Z,9.00
2019-04-05T00:05:34.378Z,8.80
2019-04-05T00:07:36.097Z,8.70
2019-04-05T00:09:37.799Z,8.70
2019-04-05T00:11:39.709Z,8.80
2019-04-05T00:13:41.466Z,8.90
2019-04-05T00:15:44.066Z,8.90
2019-04-05T00:17:45.784Z,9.00
2019-04-05T00:19:47.605Z,9.00
2019-04-05T00:21:49.428Z,9.10
2019-04-05T00:23:51.154Z,9.10
2019-04-05T00:25:52.967Z,9.00
2019-04-05T00:27:54.672Z,9.00
2019-04-05T00:29:56.382Z,9.00
2019-04-05T00:31:58.082Z,9.00
2019-04-05T00:33:59.806Z,9.10
2019-04-05T00:36:01.509Z,9.20
2019-04-05T00:38:03.641Z,9.20
2019-04-05T00:40:06.810Z,9.10
2019-04-05T00:42:08.514Z,9.10
2019-04-05T00:44:10.243Z,9.20
2019-04-05T00:46:12.051Z,9.20
2019-04-05T00:48:13.858Z,9.20
2019-04-05T00:50:15.773Z,9.20
2019-04-05T00:52:17.686Z,9.10
2019-04-05T00:54:19.521Z,9.10
2019-04-05T00:56:21.325Z,9.20
2019-04-05T00:58:23.041Z,9.20
2019-04-05T01:00:24.887Z,9.10
2019-04-05T01:02:27.051Z,9.10
2019-04-05T01:04:28.761Z,9.10
2019-04-05T01:06:30.586Z,9.10
2019-04-05T01:08:32.494Z,9.20
2019-04-05T01:10:34.321Z,9.20
2019-04-05T01:12:38.038Z,9.10
2019-04-05T01:14:40.008Z,9.10
2019-04-05T01:16:42.781Z,9.20
2019-04-05T01:18:44.592Z,9.20
2019-04-05T01:20:50.201Z,9.20
2019-04-05T01:22:52.835Z,9.20
2019-04-05T01:24:55.227Z,9.20
2019-04-05T01:26:58.658Z,9.10
2019-04-05T01:29:00.474Z,9.10
2019-04-05T01:31:02.409Z,9.00
2019-04-05T01:33:04.364Z,9.10
2019-04-05T01:35:06.213Z,9.10
2019-04-05T01:37:08.094Z,9.10
2019-04-05T01:39:10.115Z,9.20
2019-04-05T01:41:12.048Z,9.20
2019-04-05T01:43:14.351Z,9.20
2019-04-05T01:45:16.287Z,9.20
2019-04-05T01:47:18.097Z,9.30
2019-04-05T01:49:19.893Z,9.30
2019-04-05T01:51:21.950Z,9.30
2019-04-05T01:53:23.691Z,9.30
2019-04-05T01:55:25.536Z,9.30
2019-04-05T01:57:27.359Z,9.30
2019-04-05T01:59:29.161Z,9.20
2019-04-05T02:01:30.998Z,9.20
2019-04-05T02:03:32.915Z,9.20
2019-04-05T02:05:34.835Z,9.20
2019-04-05T02:07:36.882Z,9.20
2019-04-05T02:09:38.918Z,9.20
2019-04-05T02:11:40.980Z,9.20
2019-04-05T02:13:42.899Z,9.20
2019-04-05T02:15:44.909Z,9.20
2019-04-05T02:17:46.759Z,9.10
2019-04-05T02:19:48.676Z,9.00
2019-04-05T02:21:50.588Z,9.10
2019-04-05T02:23:52.815Z,9.10
2019-04-05T02:25:54.636Z,9.20
2019-04-05T02:27:56.795Z,9.10
2019-04-05T02:29:58.717Z,9.10
2019-04-05T02:32:00.629Z,9.10
2019-04-05T02:34:02.538Z,9.10
2019-04-05T02:36:04.466Z,9.10
2019-04-05T02:38:06.388Z,9.10
2019-04-05T02:40:11.074Z,9.10
2019-04-05T02:42:13.463Z,9.10
2019-04-05T02:44:16.388Z,9.00
2019-04-05T02:46:24.101Z,9.00
2019-04-05T02:48:24.937Z,9.10
2019-04-05T02:50:30.470Z,9.10
2019-04-05T02:52:34.393Z,9.10
2019-04-05T02:54:36.305Z,9.20
2019-04-05T02:56:39.129Z,9.10
2019-04-05T02:58:41.546Z,9.10
2019-04-05T03:00:44.259Z,9.00
2019-04-05T03:02:47.057Z,9.10
2019-04-05T03:04:49.564Z,9.10
2019-04-05T03:06:51.455Z,9.10
2019-04-05T03:08:53.366Z,9.10
2019-04-05T03:11:04.444Z,9.00
2019-04-05T03:13:06.364Z,9.10
2019-04-05T03:15:08.886Z,9.10
2019-04-05T03:17:11.138Z,9.10
2019-04-05T03:19:21.330Z,9.10
2019-04-05T03:21:25.873Z,9.00
2019-04-05T03:23:29.609Z,8.90
2019-04-05T03:25:32.752Z,8.90
2019-04-05T03:27:37.440Z,8.90
2019-04-05T03:29:39.871Z,8.90
2019-04-05T03:31:41.774Z,8.90
2019-04-05T03:33:44.180Z,8.90
2019-04-05T03:35:46.103Z,8.90
2019-04-05T03:37:48.052Z,9.00
2019-04-05T03:39:50.414Z,8.90
2019-04-05T03:41:53.064Z,9.00
2019-04-05T03:43:55.080Z,8.90
2019-04-05T03:45:56.998Z,8.90
2019-04-05T03:47:58.919Z,8.90
2019-04-05T03:50:00.853Z,8.90
2019-04-05T03:52:04.293Z,8.80
2019-04-05T03:54:06.330Z,8.90
2019-04-05T03:56:08.240Z,8.80
2019-04-05T03:58:10.444Z,8.80
2019-04-05T04:00:12.487Z,8.70
2019-04-05T04:02:14.284Z,8.70
2019-04-05T04:04:16.153Z,8.70
2019-04-05T04:06:18.051Z,8.80
2019-04-05T04:08:23.430Z,8.80
2019-04-05T04:10:26.494Z,8.90
2019-04-05T04:12:28.309Z,8.90
2019-04-05T04:14:30.220Z,8.90
2019-04-05T04:16:32.531Z,8.90
2019-04-05T04:18:34.443Z,8.90
2019-04-05T04:20:40.878Z,8.90
2019-04-05T04:22:42.831Z,8.90
2019-04-05T04:24:45.158Z,9.00
2019-04-05T04:26:47.970Z,9.00
2019-04-05T04:28:49.890Z,8.90
2019-04-05T04:30:52.499Z,9.00
2019-04-05T04:32:54.618Z,9.00
2019-04-05T04:34:56.674Z,9.00
2019-04-05T04:36:58.470Z,9.00
2019-04-05T04:39:00.373Z,9.00
2019-04-05T04:41:02.385Z,9.10
2019-04-05T04:43:04.377Z,9.00
2019-04-05T04:45:12.316Z,9.10
2019-04-05T04:47:10.394Z,9.10
2019-04-05T04:49:12.419Z,9.20
2019-04-05T04:51:14.539Z,9.10
2019-04-05T04:53:16.469Z,9.00
2019-04-05T04:55:18.396Z,9.00
2019-04-05T04:57:20.312Z,9.00
2019-04-05T04:59:22.349Z,9.10
2019-04-05T05:01:24.704Z,9.00
2019-04-05T05:03:26.660Z,9.00
2019-04-05T05:05:28.934Z,9.00
2019-04-05T05:07:30.844Z,9.00
2019-04-05T05:09:32.895Z,9.00
2019-04-05T05:11:35.436Z,9.00
2019-04-05T05:13:37.439Z,9.00
2019-04-05T05:15:39.470Z,9.00
2019-04-05T05:17:41.761Z,8.90
2019-04-05T05:19:43.773Z,8.80
2019-04-05T05:21:46.567Z,8.70
2019-04-05T05:23:48.537Z,8.80
2019-04-05T05:25:50.960Z,8.80
2019-04-05T05:27:52.895Z,8.80
2019-04-05T05:29:54.905Z,8.80
2019-04-05T05:31:56.837Z,8.70
2019-04-05T05:33:58.969Z,8.80
2019-04-05T05:36:00.883Z,8.80
2019-04-05T05:38:02.889Z,8.80
2019-04-05T05:40:07.375Z,8.90
2019-04-05T05:42:09.384Z,8.80
2019-04-05T05:44:11.329Z,8.90
2019-04-05T05:46:13.165Z,8.90
2019-04-05T05:48:15.086Z,8.90
2019-04-05T05:50:17.301Z,8.90
2019-04-05T05:52:19.658Z,8.90
2019-04-05T05:54:21.429Z,8.90
2019-04-05T05:56:23.160Z,9.00
2019-04-05T05:58:25.873Z,9.00
2019-04-05T06:00:30.533Z,9.10
2019-04-05T06:02:32.083Z,9.20
2019-04-05T06:04:33.773Z,9.20
2019-04-05T06:06:35.761Z,9.20
2019-04-05T06:08:37.474Z,9.20
2019-04-05T06:10:39.178Z,9.20
2019-04-05T06:12:41.152Z,9.20
2019-04-05T06:14:42.846Z,9.20
2019-04-05T06:16:46.598Z,9.30
2019-04-05T06:18:48.677Z,9.30
2019-04-05T06:20:50.460Z,9.30
2019-04-05T06:22:52.268Z,9.30
2019-04-05T06:24:54.088Z,9.30
2019-04-05T06:26:55.798Z,9.40
2019-04-05T06:28:57.504Z,9.30
2019-04-05T06:30:59.339Z,9.30
2019-04-05T06:33:01.301Z,9.20
2019-04-05T06:35:03.798Z,9.30
2019-04-05T06:37:05.522Z,9.30
2019-04-05T06:39:07.437Z,9.30
2019-04-05T06:41:09.166Z,9.30
2019-04-05T06:43:10.873Z,9.30
2019-04-05T06:45:12.990Z,9.30
2019-04-05T06:47:14.710Z,9.30
2019-04-05T06:49:16.422Z,9.30
2019-04-05T06:51:18.157Z,9.30
2019-04-05T06:53:19.853Z,9.20
2019-04-05T06:55:21.584Z,9.30
2019-04-05T06:57:23.306Z,9.30
2019-04-05T06:59:25.118Z,9.30
2019-04-05T07:01:27.020Z,9.30
2019-04-05T07:03:28.837Z,9.30
2019-04-05T07:05:30.558Z,9.30
2019-04-05T07:07:32.288Z,9.40
2019-04-05T07:09:34.404Z,9.40
2019-04-05T07:11:36.242Z,9.40
2019-04-05T07:13:38.050Z,9.50
2019-04-05T07:15:39.765Z,9.50
2019-04-05T07:17:41.489Z,9.60
2019-04-05T07:19:43.569Z,9.60
2019-04-05T07:21:45.273Z,9.60
2019-04-05T07:23:46.996Z,9.70
2019-04-05T07:25:48.709Z,9.70
2019-04-05T07:27:50.424Z,9.70
2019-04-05T07:29:52.146Z,9.70
2019-04-05T07:31:53.890Z,9.70
2019-04-05T07:33:56.305Z,9.60
2019-04-05T07:35:58.360Z,9.80
2019-04-05T07:38:00.063Z,9.80
2019-04-05T07:40:01.921Z,9.80
2019-04-05T07:42:03.835Z,9.90
2019-04-05T07:44:05.545Z,10.00
2019-04-05T07:46:07.275Z,10.00
2019-04-05T07:48:09.185Z,10.10
2019-04-05T07:50:10.996Z,10.20
2019-04-05T07:52:13.177Z,10.20
2019-04-05T07:54:15.053Z,10.10
2019-04-05T07:56:16.854Z,10.20
2019-04-05T07:58:18.584Z,10.20
2019-04-05T08:03:10.927Z,10.30
2019-04-05T08:05:13.161Z,10.30
2019-04-05T08:07:17.220Z,10.30
2019-04-05T08:09:19.824Z,10.30
2019-04-05T08:11:22.478Z,10.30
2019-04-05T08:13:26.489Z,10.50
2019-04-05T08:15:28.591Z,10.50
2019-04-05T08:17:30.313Z,10.50
2019-04-05T08:19:32.136Z,10.50
2019-04-05T08:21:34.009Z,10.50
2019-04-05T08:23:35.742Z,10.50
2019-04-05T08:25:37.552Z,10.50
2019-04-05T08:27:39.265Z,10.40
2019-04-05T08:29:41.045Z,10.40
2019-04-05T08:31:42.911Z,10.40
2019-04-05T08:33:44.621Z,10.50
2019-04-05T08:35:46.444Z,10.50
2019-04-05T08:37:48.153Z,10.50
2019-04-05T08:39:49.885Z,10.60
2019-04-05T08:41:51.639Z,10.60
2019-04-05T08:43:53.355Z,10.70
2019-04-05T08:45:55.069Z,10.90
2019-04-05T08:47:57.221Z,10.90
2019-04-05T08:49:58.925Z,11.10
2019-04-05T08:52:00.656Z,11.10
2019-04-05T08:54:02.685Z,11.00
2019-04-05T08:56:04.602Z,10.80
2019-04-05T08:58:06.419Z,10.80
2019-04-05T09:00:08.869Z,10.80
2019-04-05T09:02:10.596Z,10.70
2019-04-05T09:04:12.290Z,10.50
2019-04-05T09:06:14.105Z,10.50
2019-04-05T09:08:16.058Z,10.50
2019-04-05T09:10:17.966Z,10.60
2019-04-05T09:12:19.669Z,10.60
2019-04-05T09:14:21.378Z,10.60
2019-04-05T09:16:23.118Z,10.80
2019-04-05T09:18:24.937Z,10.90
2019-04-05T09:20:26.757Z,11.00
2019-04-05T09:22:28.453Z,11.10
2019-04-05T09:24:30.161Z,11.10
2019-04-05T09:26:31.885Z,11.00
2019-04-05T09:28:33.616Z,11.10
2019-04-05T09:30:35.628Z,11.10
2019-04-05T09:32:37.367Z,11.10
2019-04-05T09:34:39.069Z,11.20
2019-04-05T09:36:40.870Z,11.20
2019-04-05T09:38:42.652Z,11.10
2019-04-05T09:40:44.766Z,11.20
2019-04-05T09:42:46.705Z,11.20
2019-04-05T09:44:48.441Z,11.30
2019-04-05T09:46:51.269Z,11.50
2019-04-05T09:48:53.256Z,11.60
2019-04-05T09:50:55.100Z,11.80
2019-04-05T09:52:56.797Z,12.00
2019-04-05T09:54:58.496Z,12.20
2019-04-05T09:57:00.212Z,12.40
2019-04-05T09:59:02.123Z,12.40
2019-04-05T10:01:04.158Z,12.40
2019-04-05T10:03:05.853Z,12.40
2019-04-05T10:05:08.010Z,12.30
2019-04-05T10:07:09.757Z,12.20
2019-04-05T10:09:11.776Z,12.20
2019-04-05T10:11:13.485Z,12.30
2019-04-05T10:13:15.201Z,12.40
2019-04-05T10:15:17.022Z,12.20
2019-04-05T10:17:18.721Z,12.20
2019-04-05T10:19:20.488Z,12.40
2019-04-05T10:21:22.379Z,12.40
2019-04-05T10:23:24.093Z,12.60
2019-04-05T10:25:26.154Z,12.90
2019-04-05T10:27:27.961Z,13.20
2019-04-05T10:29:29.739Z,13.30
2019-04-05T10:31:31.577Z,13.30
2019-04-05T10:33:33.288Z,13.30
2019-04-05T10:35:35.001Z,13.40
2019-04-05T10:37:36.745Z,13.20
2019-04-05T10:39:38.461Z,13.00
2019-04-05T10:41:40.277Z,12.60
2019-04-05T10:43:41.981Z,12.50
2019-04-05T10:45:43.909Z,12.20
2019-04-05T10:47:45.818Z,12.20
2019-04-05T10:49:47.518Z,12.10
2019-04-05T10:51:49.353Z,12.10
2019-04-05T10:53:51.052Z,12.10
2019-04-05T10:55:52.875Z,12.20
2019-04-05T10:57:54.588Z,12.30
2019-04-05T10:59:56.320Z,12.50
2019-04-05T11:01:58.021Z,12.50
2019-04-05T11:03:59.952Z,12.90
2019-04-05T11:06:01.766Z,13.20
2019-04-05T11:08:03.676Z,13.40
2019-04-05T11:10:07.520Z,13.90
2019-04-05T11:12:09.265Z,13.90
2019-04-05T11:14:14.058Z,14.10
2019-04-05T11:16:17.573Z,14.00
2019-04-05T11:18:19.497Z,14.10
2019-04-05T11:20:22.067Z,14.60
2019-04-05T11:22:24.208Z,14.80
2019-04-05T11:24:26.021Z,14.80
2019-04-05T11:26:27.826Z,14.80
2019-04-05T11:28:29.561Z,14.90
2019-04-05T11:30:40.728Z,14.90
2019-04-05T11:32:42.521Z,15.00
2019-04-05T11:34:44.353Z,15.40
2019-04-05T11:36:46.264Z,15.70
2019-04-05T11:38:50.908Z,15.70
2019-04-05T11:40:52.810Z,15.50
2019-04-05T11:42:55.729Z,15.30
2019-04-05T11:44:57.662Z,15.30
2019-04-05T11:46:59.779Z,15.60
2019-04-05T11:49:03.826Z,16.20
2019-04-05T11:51:05.549Z,16.70
2019-04-05T11:53:07.456Z,16.70
2019-04-05T11:55:09.560Z,16.90
2019-04-05T11:57:11.290Z,17.00
2019-04-05T11:59:15.547Z,17.20
2019-04-05T12:01:23.489Z,17.10
2019-04-05T12:03:25.945Z,16.70
2019-04-05T12:05:28.201Z,16.10
2019-04-05T12:07:29.907Z,15.90
2019-04-05T12:09:31.629Z,15.60
2019-04-05T12:11:33.620Z,15.40
2019-04-05T12:13:35.431Z,15.40
2019-04-05T12:15:37.141Z,15.30
2019-04-05T12:17:38.954Z,15.40
2019-04-05T12:19:40.782Z,15.50
2019-04-05T12:21:42.617Z,15.70
2019-04-05T12:23:44.350Z,16.00
2019-04-05T12:25:46.102Z,16.20
2019-04-05T12:27:47.808Z,16.50
2019-04-05T12:29:49.504Z,16.40
2019-04-05T12:31:53.457Z,16.30
2019-04-05T12:33:55.161Z,16.40
2019-04-05T12:35:56.954Z,16.30
2019-04-05T12:37:58.733Z,16.50
2019-04-05T12:40:00.546Z,16.30
2019-04-05T12:42:02.361Z,16.10
2019-04-05T12:44:04.473Z,16.20
2019-04-05T12:46:06.488Z,16.30
2019-04-05T12:48:08.188Z,16.60
2019-04-05T12:50:14.172Z,16.30
2019-04-05T12:52:22.621Z,16.30
2019-04-05T12:54:18.113Z,16.30
2019-04-05T12:56:19.944Z,16.70
2019-04-05T12:58:25.526Z,16.80
2019-04-05T13:00:25.940Z,16.30
2019-04-05T13:02:33.996Z,16.70
2019-04-05T13:04:32.066Z,17.00
2019-04-05T13:06:33.814Z,17.30
2019-04-05T13:08:35.548Z,16.80
2019-04-05T13:10:37.261Z,16.80
2019-04-05T13:12:40.745Z,16.40
2019-04-05T13:14:42.457Z,15.70
2019-04-05T13:16:44.292Z,15.40
2019-04-05T13:18:46.033Z,15.50
2019-04-05T13:20:48.026Z,15.30
2019-04-05T13:22:49.765Z,15.10
2019-04-05T13:24:51.501Z,14.70
2019-04-05T13:26:53.324Z,14.70
2019-04-05T13:28:55.035Z,15.00
2019-04-05T13:30:56.849Z,15.20
2019-04-05T13:32:58.573Z,15.50
2019-04-05T13:35:00.312Z,15.60
2019-04-05T13:37:02.047Z,15.50
2019-04-05T13:39:05.771Z,15.30
2019-04-05T13:41:07.477Z,15.30
2019-04-05T13:43:09.342Z,15.50
2019-04-05T13:45:12.569Z,15.70
2019-04-05T13:47:14.846Z,16.00
2019-04-05T13:49:16.560Z,15.90
2019-04-05T13:51:27.819Z,15.80
2019-04-05T13:55:52.196Z,15.10
2019-04-05T13:57:53.933Z,15.10
2019-04-05T13:59:55.673Z,15.40
2019-04-05T14:02:06.043Z,15.50
2019-04-05T14:04:01.224Z,15.70
2019-04-05T14:06:03.569Z,15.50
2019-04-05T14:08:10.339Z,15.80
2019-04-05T14:10:12.286Z,15.40
2019-04-05T14:12:14.215Z,15.30
2019-04-05T14:14:16.010Z,15.40
2019-04-05T14:16:17.711Z,15.20
2019-04-05T14:18:20.807Z,15.20
2019-04-05T14:20:24.542Z,14.90
2019-04-05T14:22:26.396Z,14.90
2019-04-05T14:24:28.222Z,14.80
2019-04-05T14:26:30.063Z,15.00
2019-04-05T14:28:35.665Z,15.00
2019-04-05T14:30:37.386Z,14.90
2019-04-05T14:32:39.092Z,14.60
2019-04-05T14:34:40.780Z,14.60
2019-04-05T14:36:42.509Z,14.60
2019-04-05T14:38:44.332Z,14.80
2019-04-05T14:40:46.285Z,14.90
2019-04-05T14:42:48.805Z,14.90
2019-04-05T14:44:50.548Z,14.90
2019-04-05T14:46:52.253Z,14.60
2019-04-05T14:48:54.063Z,14.80
2019-04-05T14:50:57.927Z,14.90
2019-04-05T14:53:01.816Z,14.90
2019-04-05T14:55:03.999Z,15.20
2019-04-05T14:57:06.126Z,15.40
2019-04-05T14:59:07.929Z,15.70
2019-04-05T15:01:10.669Z,16.40
2019-04-05T15:03:13.051Z,16.50
2019-04-05T15:05:17.842Z,16.10
2019-04-05T15:07:20.836Z,16.20
2019-04-05T15:09:25.510Z,16.00
2019-04-05T15:11:29.411Z,15.80
2019-04-05T15:13:30.820Z,15.80
2019-04-05T15:15:32.668Z,16.20
2019-04-05T15:17:46.874Z,16.80
2019-04-05T15:19:38.115Z,16.50
2019-04-05T15:21:39.961Z,16.30
2019-04-05T15:23:45.391Z,16.20
2019-04-05T15:25:49.372Z,16.30
2019-04-05T15:27:51.386Z,16.20
2019-04-05T15:29:55.342Z,16.30
2019-04-05T15:31:56.965Z,16.50
2019-04-05T15:33:58.708Z,16.50
2019-04-05T15:36:02.954Z,16.20
2019-04-05T15:38:04.164Z,16.00
2019-04-05T15:40:07.016Z,15.80
2019-04-05T15:42:08.730Z,15.20
2019-04-05T15:44:10.459Z,15.30
2019-04-05T15:46:12.345Z,15.00
2019-04-05T15:48:14.145Z,15.10
2019-04-05T15:50:16.065Z,14.70
2019-04-05T15:52:19.202Z,14.80
2019-04-05T15:54:21.093Z,14.40
2019-04-05T15:56:22.941Z,14.40
2019-04-05T15:58:25.609Z,14.40
2019-04-05T16:00:41.680Z,14.40
2019-04-05T16:02:43.507Z,14.30
2019-04-05T16:04:45.646Z,14.40
2019-04-05T16:06:47.435Z,14.10
2019-04-05T16:08:49.220Z,13.80
2019-04-05T16:10:50.994Z,13.70
2019-04-05T16:12:52.673Z,13.50
2019-04-05T16:14:54.380Z,13.40
2019-04-05T16:16:56.260Z,13.20
2019-04-05T16:18:58.363Z,12.90
2019-04-05T16:21:00.248Z,12.80
2019-04-05T16:23:02.105Z,12.80
2019-04-05T16:25:04.664Z,12.70
2019-04-05T16:27:06.440Z,12.60
2019-04-05T16:29:08.261Z,12.70
2019-04-05T16:31:10.245Z,12.50
2019-04-05T16:33:11.976Z,12.30
2019-04-05T16:35:14.836Z,12.20
2019-04-05T16:37:16.758Z,12.30
2019-04-05T16:39:19.547Z,12.20
2019-04-05T16:41:24.316Z,12.20
2019-04-05T16:43:26.083Z,12.10
2019-04-05T16:45:27.843Z,12.00
2019-04-05T16:47:29.767Z,12.00
2019-04-05T16:49:32.757Z,12.00
2019-04-05T16:51:34.791Z,12.00
2019-04-05T16:53:38.379Z,12.00
2019-04-05T16:55:40.219Z,11.90
2019-04-05T16:57:41.929Z,11.90
2019-04-05T16:59:43.726Z,11.90
2019-04-05T17:01:45.481Z,11.90
2019-04-05T17:03:47.256Z,11.90
2019-04-05T17:05:52.224Z,11.80
2019-04-05T17:07:56.945Z,11.80
2019-04-05T17:09:58.876Z,11.80
2019-04-05T17:12:00.709Z,11.70
2019-04-05T17:14:08.496Z,11.80
2019-04-05T17:16:10.307Z,11.70
2019-04-05T17:18:12.032Z,11.70
2019-04-05T17:20:13.721Z,11.70
2019-04-05T17:22:15.452Z,11.60
2019-04-05T17:24:17.161Z,11.70
2019-04-05T17:26:21.590Z,11.70
2019-04-05T17:28:23.374Z,11.60
2019-04-05T17:30:25.407Z,11.60
2019-04-05T17:32:27.080Z,11.60
2019-04-05T17:34:28.820Z,11.70
2019-04-05T17:36:33.174Z,11.70
2019-04-05T17:38:35.141Z,11.60
2019-04-05T17:40:37.357Z,11.60
2019-04-05T17:42:39.081Z,11.60
2019-04-05T17:44:40.897Z,11.50
2019-04-05T17:46:42.812Z,11.50
2019-04-05T17:48:44.638Z,11.50
2019-04-05T17:50:46.383Z,11.50
2019-04-05T17:52:48.389Z,11.40
2019-04-05T17:54:50.133Z,11.40
2019-04-05T17:56:52.048Z,11.40
2019-04-05T17:58:55.069Z,11.50
2019-04-05T18:00:56.760Z,11.60
2019-04-05T18:02:58.634Z,11.50
2019-04-05T18:05:00.348Z,11.40
2019-04-05T18:07:02.351Z,11.50
2019-04-05T18:09:07.579Z,11.50
2019-04-05T18:11:09.621Z,11.40
2019-04-05T18:13:11.575Z,11.40
2019-04-05T18:15:13.772Z,11.30
2019-04-05T18:17:15.516Z,11.40
2019-04-05T18:19:17.269Z,11.30
2019-04-05T18:21:19.255Z,11.40
2019-04-05T18:23:25.163Z,11.40
2019-04-05T18:25:24.617Z,11.40
2019-04-05T18:27:26.661Z,11.30
2019-04-05T18:29:28.349Z,11.20
2019-04-05T18:31:31.502Z,11.20
2019-04-05T18:33:33.354Z,11.20
2019-04-05T18:35:35.089Z,11.20
2019-04-05T18:37:37.242Z,11.10
2019-04-05T18:39:38.957Z,11.10
2019-04-05T18:41:40.649Z,11.10
2019-04-05T18:43:42.485Z,11.00
2019-04-05T18:45:44.185Z,11.10
2019-04-05T18:47:45.980Z,11.10
2019-04-05T18:49:47.716Z,11.10
2019-04-05T18:51:49.554Z,11.10
2019-04-05T18:53:51.499Z,11.10
2019-04-05T18:55:54.998Z,11.00
2019-04-05T18:57:56.704Z,11.10
2019-04-05T18:59:58.402Z,11.00
2019-04-05T19:02:00.301Z,11.10
2019-04-05T19:04:05.224Z,11.00
2019-04-05T19:06:06.215Z,10.90
2019-04-05T19:08:08.121Z,11.10
2019-04-05T19:10:10.122Z,10.90
2019-04-05T19:12:12.016Z,11.00
2019-04-05T19:14:13.730Z,10.90
2019-04-05T19:16:15.413Z,10.80
2019-04-05T19:18:17.531Z,10.90
2019-04-05T19:20:19.644Z,11.00
2019-04-05T19:22:21.701Z,11.10
2019-04-05T19:24:23.671Z,11.10
2019-04-05T19:26:25.457Z,10.90
2019-04-05T19:28:34.268Z,11.00
2019-04-05T19:49:30.829Z,10.80
2019-04-05T19:51:32.548Z,10.70
2019-04-05T19:53:34.385Z,10.70
2019-04-05T19:55:36.097Z,10.80
2019-04-05T19:57:37.786Z,10.80
2019-04-05T19:59:39.472Z,10.80
2019-04-05T20:01:41.207Z,10.70
2019-04-05T20:03:43.304Z,10.70
2019-04-05T20:05:45.093Z,10.70
2019-04-05T20:07:46.908Z,10.80
2019-04-05T20:09:48.796Z,10.70
2019-04-05T20:11:50.588Z,10.70
2019-04-05T20:13:52.325Z,10.70
2019-04-05T20:15:54.129Z,10.60
2019-04-05T20:17:55.864Z,10.70
2019-04-05T20:19:57.618Z,10.60
2019-04-05T20:21:59.305Z,10.60
2019-04-05T20:24:09.435Z,10.60
2019-04-05T20:26:04.948Z,10.60
2019-04-05T20:28:06.760Z,10.60
2019-04-05T20:30:08.664Z,10.50
2019-04-05T20:32:10.376Z,10.40
2019-04-05T20:34:12.103Z,10.40
2019-04-05T20:36:14.253Z,10.50
2019-04-05T20:38:15.976Z,10.40
2019-04-05T20:40:17.689Z,10.40
2019-04-05T20:42:19.469Z,10.40
2019-04-05T20:44:21.170Z,10.40
2019-04-05T20:46:22.888Z,10.40
2019-04-05T20:48:24.704Z,10.50
2019-04-05T20:50:26.401Z,10.50
2019-04-05T20:52:28.120Z,10.30
2019-04-05T20:54:30.111Z,10.30
2019-04-05T20:56:32.062Z,10.30
2019-04-05T20:58:33.754Z,10.40
2019-04-05T21:00:35.568Z,10.50
2019-04-05T21:02:37.560Z,10.50
2019-04-05T21:04:39.284Z,10.50
2019-04-05T21:06:41.011Z,10.50
2019-04-05T21:08:42.821Z,10.50
2019-04-05T21:10:44.621Z,10.50
2019-04-05T21:12:46.325Z,10.40
2019-04-05T21:14:48.017Z,10.50
2019-04-05T21:16:49.724Z,10.50
2019-04-05T21:18:51.605Z,10.40
2019-04-05T21:20:53.636Z,10.40
2019-04-05T21:22:58.685Z,10.50
2019-04-05T21:25:00.494Z,10.50
2019-04-05T21:27:02.244Z,10.50
2019-04-05T21:29:04.443Z,10.50
2019-04-05T21:31:06.982Z,10.40
2019-04-05T21:33:08.673Z,10.40
2019-04-05T21:35:10.588Z,10.40
2019-04-05T21:37:12.321Z,10.20
2019-04-05T21:39:15.138Z,10.20
2019-04-05T21:41:17.020Z,10.20
2019-04-05T21:43:18.955Z,10.20
2019-04-05T21:45:20.698Z,10.20
2019-04-05T21:47:22.500Z,10.20
2019-04-05T21:49:24.493Z,10.20
2019-04-05T21:51:26.209Z,10.10
2019-04-05T21:53:27.995Z,10.10
2019-04-05T21:55:29.721Z,10.00
2019-04-05T21:57:31.421Z,10.10
2019-04-05T21:59:33.225Z,10.00
2019-04-05T22:01:34.905Z,10.00
2019-04-05T22:03:36.600Z,9.90
2019-04-05T22:05:38.333Z,9.90
2019-04-05T22:07:40.122Z,9.90
2019-04-05T22:09:41.892Z,9.90
2019-04-05T22:11:43.784Z,9.80
2019-04-05T22:13:45.663Z,9.70
2019-04-05T22:15:47.344Z,9.70
2019-04-05T22:17:49.053Z,9.60
2019-04-05T22:19:50.744Z,9.70
2019-04-05T22:21:52.448Z,9.60
2019-04-05T22:23:54.168Z,9.60
2019-04-05T22:25:55.973Z,9.50
2019-04-05T22:27:57.662Z,9.50
2019-04-05T22:29:59.613Z,9.50
2019-04-05T22:32:01.296Z,9.50
2019-04-05T22:34:03.008Z,9.60
2019-04-05T22:36:04.729Z,9.50
2019-04-05T22:38:06.440Z,9.60
2019-04-05T22:40:08.893Z,9.60
2019-04-05T22:42:10.625Z,9.60
2019-04-05T22:44:12.309Z,9.70
2019-04-05T22:46:14.002Z,9.60
2019-04-05T22:48:15.716Z,9.70
2019-04-05T22:50:17.406Z,9.70
2019-04-05T22:52:19.193Z,9.70
2019-04-05T22:54:20.924Z,9.70
2019-04-05T22:56:22.629Z,9.70
2019-04-05T22:58:25.250Z,9.70
2019-04-05T23:00:26.980Z,9.70
2019-04-05T23:02:28.681Z,9.70
2019-04-05T23:04:30.389Z,9.80
2019-04-05T23:06:32.097Z,9.80
2019-04-05T23:08:33.816Z,9.80
2019-04-05T23:10:35.699Z,9.90
2019-04-05T23:12:37.506Z,9.90
2019-04-05T23:14:39.291Z,9.90
2019-04-05T23:16:40.981Z,9.90
2019-04-05T23:18:42.933Z,9.90
2019-04-05T23:20:44.709Z,9.80
2019-04-05T23:22:46.397Z,9.80
2019-04-05T23:24:48.351Z,9.80
2019-04-05T23:26:50.054Z,9.80
2019-04-05T23:28:51.777Z,9.80
2019-04-05T23:30:53.470Z,9.70
2019-04-05T23:32:55.194Z,9.70
2019-04-05T23:34:57.212Z,9.60
2019-04-05T23:36:58.905Z,9.70
2019-04-05T23:39:00.595Z,9.80
2019-04-05T23:41:04.223Z,9.80
2019-04-05T23:43:06.050Z,9.90
2019-04-05T23:45:07.969Z,9.90
2019-04-05T23:47:09.688Z,9.80
2019-04-05T23:49:11.407Z,9.70
2019-04-05T23:51:13.089Z,9.70
2019-04-05T23:53:14.800Z,9.60
2019-04-05T23:55:16.518Z,9.60
2019-04-05T23:57:18.204Z,9.60
2019-04-05T23:59:20.017Z,9.60
